Time;durP1;ratioP1;P1;durP2;ratioP2;P2;SDS_P1;SDS_P2;PMS_P1;PMS_P2;Temp;Humidity;BMP_temperature;BMP_pressure;BME280_temperature;BME280_humidity;BME280_pressure;Samples;Min_cycle;Max_cycle;Signal;HPM_P1;HPM_P2
2021/03/25 00:01:34;;;;;;;12.20;9.52;;;6.20;99.90;;;;;;5034132;28;20244;-43
2021/03/25 00:04:01;;;;;;;15.55;10.75;;;6.10;99.90;;;;;;5033889;28;20639;-43
2021/03/25 00:06:29;;;;;;;11.57;9.32;;;6.10;99.90;;;;;;5034159;28;20219;-43
2021/03/25 00:08:56;;;;;;;13.77;10.48;;;6.10;99.90;;;;;;5033576;28;20671;-43
2021/03/25 00:11:23;;;;;;;11.15;9.57;;;6.00;99.90;;;;;;5033838;28;20300;-42
2021/03/25 00:13:50;;;;;;;10.93;9.80;;;6.10;99.90;;;;;;5033534;28;20682;-40
2021/03/25 00:16:19;;;;;;;11.90;10.25;;;6.00;99.90;;;;;;5034006;28;20208;-41
2021/03/25 00:18:45;;;;;;;12.10;9.25;;;6.10;99.90;;;;;;5033464;28;20263;-41
2021/03/25 00:21:13;;;;;;;9.52;8.20;;;6.00;99.90;;;;;;5033530;28;20673;-41
2021/03/25 00:23:40;;;;;;;10.35;8.27;;;6.00;99.90;;;;;;5033507;28;20315;-41
2021/03/25 00:26:07;;;;;;;8.15;7.35;;;6.00;99.90;;;;;;5033513;28;20812;-41
2021/03/25 00:28:34;;;;;;;8.90;8.07;;;5.90;99.80;;;;;;5033372;28;20347;-41
2021/03/25 00:31:01;;;;;;;9.68;7.53;;;5.90;99.90;;;;;;5033069;28;20572;-42
2021/03/25 00:33:28;;;;;;;8.52;7.63;;;5.80;99.80;;;;;;5033164;28;20271;-42
2021/03/25 00:35:56;;;;;;;8.55;7.60;;;5.80;99.90;;;;;;5033108;28;20229;-41
2021/03/25 00:38:23;;;;;;;8.32;7.38;;;5.80;99.90;;;;;;5033335;28;20282;-42
2021/03/25 00:40:50;;;;;;;8.05;7.35;;;5.80;99.80;;;;;;5032542;28;20325;-41
2021/03/25 00:43:19;;;;;;;8.15;6.85;;;5.70;99.90;;;;;;5032965;28;20237;-41
2021/03/25 00:45:48;;;;;;;8.85;7.95;;;5.70;99.90;;;;;;5032893;28;20212;-42
2021/03/25 00:48:16;;;;;;;9.02;8.05;;;5.60;99.90;;;;;;5033129;28;20660;-41
2021/03/25 00:50:47;;;;;;;8.68;7.20;;;5.60;99.90;;;;;;5032834;28;20308;-42
2021/03/25 00:53:17;;;;;;;9.48;7.72;;;5.60;99.90;;;;;;5032846;28;20558;-42
2021/03/25 00:55:44;;;;;;;8.70;7.28;;;5.50;99.90;;;;;;5032787;28;20320;-42
2021/03/25 00:58:11;;;;;;;7.80;7.00;;;5.60;99.90;;;;;;5032678;28;20299;-42
2021/03/25 01:00:41;;;;;;;9.00;7.22;;;5.60;99.80;;;;;;5032971;28;20238;-42
2021/03/25 01:03:10;;;;;;;9.55;7.13;;;5.60;99.80;;;;;;5033069;28;20299;-42
2021/03/25 01:05:38;;;;;;;8.80;6.85;;;5.60;99.80;;;;;;5032707;28;20201;-42
2021/03/25 01:08:08;;;;;;;9.68;6.88;;;5.60;99.80;;;;;;5032540;28;20733;-42
2021/03/25 01:10:37;;;;;;;8.40;7.50;;;5.50;99.80;;;;;;5032690;28;20343;-42
2021/03/25 01:13:09;;;;;;;10.50;7.32;;;5.40;99.90;;;;;;5032432;28;20289;-45
2021/03/25 01:15:37;;;;;;;8.32;6.72;;;5.40;99.90;;;;;;5032643;28;20228;-42
2021/03/25 01:18:08;;;;;;;12.27;7.05;;;5.30;99.90;;;;;;5032521;28;20592;-42
2021/03/25 01:20:38;;;;;;;11.90;7.50;;;5.30;99.90;;;;;;5032407;28;20287;-41
2021/03/25 01:23:07;;;;;;;8.32;7.53;;;5.20;99.90;;;;;;5032150;28;20218;-42
2021/03/25 01:25:35;;;;;;;10.65;9.60;;;5.20;99.90;;;;;;5032575;28;20239;-41
2021/03/25 01:28:04;;;;;;;9.40;7.38;;;5.20;99.90;;;;;;5032627;28;20291;-41
2021/03/25 01:30:33;;;;;;;7.97;7.18;;;5.30;99.90;;;;;;5032255;28;20231;-41
2021/03/25 01:33:00;;;;;;;9.07;7.53;;;5.20;99.90;;;;;;5031995;28;20324;-41
2021/03/25 01:35:29;;;;;;;8.02;7.32;;;5.20;99.90;;;;;;5031951;28;20240;-41
2021/03/25 01:37:56;;;;;;;8.07;6.88;;;5.20;99.90;;;;;;5032191;28;20240;-40
2021/03/25 01:40:27;;;;;;;8.85;7.00;;;5.20;99.90;;;;;;5032224;28;20244;-41
2021/03/25 01:43:07;;;;;;;7.38;6.68;;;5.20;99.90;;;;;;5032266;28;20211;-43
2021/03/25 01:45:48;;;;;;;8.07;6.60;;;5.20;99.90;;;;;;5032338;28;20201;-42
2021/03/25 01:48:19;;;;;;;10.85;6.85;;;5.10;99.90;;;;;;5032079;28;20287;-42
2021/03/25 01:50:47;;;;;;;9.23;7.07;;;5.20;99.90;;;;;;5032383;28;20342;-43
2021/03/25 01:53:52;;;;;;;7.53;6.68;;;5.20;99.90;;;;;;5031233;28;20271;-42
2021/03/25 01:56:34;;;;;;;8.15;7.03;;;5.10;99.90;;;;;;5008405;28;20320;-42
2021/03/25 01:59:32;;;;;;;8.40;6.30;;;5.20;99.90;;;;;;5032299;28;20215;-42
2021/03/25 02:02:08;;;;;;;7.57;6.43;;;5.10;99.90;;;;;;5028775;28;20212;-43
2021/03/25 02:04:50;;;;;;;9.73;8.13;;;5.10;99.90;;;;;;5031895;28;20533;-45
2021/03/25 02:07:25;;;;;;;9.32;7.00;;;5.10;99.90;;;;;;5031841;28;20244;-42
2021/03/25 02:09:57;;;;;;;8.73;7.30;;;5.00;99.90;;;;;;5031894;28;20287;-42
2021/03/25 02:12:33;;;;;;;9.55;7.55;;;5.00;99.90;;;;;;5031990;28;20224;-43
2021/03/25 02:15:08;;;;;;;7.18;6.05;;;5.00;99.90;;;;;;5031750;28;20239;-44
2021/03/25 02:17:41;;;;;;;8.35;6.70;;;4.90;99.90;;;;;;5031514;28;20671;-45
2021/03/25 02:20:38;;;;;;;8.90;6.50;;;5.00;99.90;;;;;;5031675;28;20212;-42
2021/03/25 02:23:37;;;;;;;8.35;6.68;;;4.90;99.90;;;;;;5031727;28;20311;-42
2021/03/25 02:26:08;;;;;;;6.78;5.90;;;4.90;99.90;;;;;;4998266;28;20666;-42
2021/03/25 02:28:52;;;;;;;8.15;6.78;;;4.90;99.90;;;;;;5031566;28;20697;-41
2021/03/25 02:31:23;;;;;;;7.90;6.65;;;4.80;99.90;;;;;;5031394;28;20315;-43
2021/03/25 02:33:53;;;;;;;7.00;6.30;;;4.80;99.90;;;;;;5031389;28;20263;-42
2021/03/25 02:36:26;;;;;;;7.28;6.30;;;4.80;99.90;;;;;;5031393;28;20775;-41
2021/03/25 02:38:59;;;;;;;6.70;6.00;;;4.70;99.90;;;;;;5031530;28;20238;-41
2021/03/25 02:41:30;;;;;;;9.43;6.32;;;4.70;99.90;;;;;;5031493;28;20209;-41
2021/03/25 02:44:01;;;;;;;8.25;6.70;;;4.70;99.90;;;;;;5031400;28;20643;-41
2021/03/25 02:46:32;;;;;;;6.53;5.93;;;4.60;99.90;;;;;;5031277;28;20250;-41
2021/03/25 02:49:04;;;;;;;7.80;6.53;;;4.60;99.90;;;;;;5031618;28;20204;-41
2021/03/25 02:51:35;;;;;;;7.78;6.40;;;4.60;99.90;;;;;;5031495;28;20217;-40
2021/03/25 02:54:03;;;;;;;7.60;6.47;;;4.50;99.90;;;;;;5031348;28;20288;-41
2021/03/25 02:56:37;;;;;;;9.73;6.88;;;4.50;99.90;;;;;;5031216;28;20243;-41
2021/03/25 02:59:08;;;;;;;7.25;6.32;;;4.50;99.90;;;;;;5031120;28;20213;-41
2021/03/25 03:01:41;;;;;;;9.85;6.75;;;4.50;99.90;;;;;;5031172;28;20215;-40
2021/03/25 03:04:16;;;;;;;8.77;6.35;;;4.50;99.90;;;;;;5032172;28;20212;-41
2021/03/25 03:06:48;;;;;;;9.65;5.78;;;4.50;99.90;;;;;;5035209;28;20212;-41
2021/03/25 03:09:21;;;;;;;7.95;6.15;;;4.50;99.90;;;;;;5035030;28;20570;-40
2021/03/25 03:11:51;;;;;;;8.70;6.43;;;4.50;99.90;;;;;;5035389;28;20219;-41
2021/03/25 03:14:25;;;;;;;9.90;5.65;;;4.50;99.90;;;;;;5034725;28;20244;-40
2021/03/25 03:16:58;;;;;;;9.20;6.30;;;4.40;99.90;;;;;;5035052;28;20299;-40
2021/03/25 03:19:29;;;;;;;8.15;6.10;;;4.50;99.90;;;;;;5034806;28;20212;-41
2021/03/25 03:21:59;;;;;;;6.15;5.20;;;4.50;99.90;;;;;;5034471;28;20299;-41
2021/03/25 03:24:26;;;;;;;7.97;6.15;;;4.50;99.90;;;;;;5035111;28;20216;-41
2021/03/25 03:26:57;;;;;;;7.95;5.90;;;4.50;99.90;;;;;;5034909;28;20237;-41
2021/03/25 03:29:27;;;;;;;8.02;5.20;;;4.40;99.90;;;;;;5034723;28;20683;-42
2021/03/25 03:32:03;;;;;;;7.93;5.97;;;4.40;99.90;;;;;;5034572;28;20266;-42
2021/03/25 03:34:35;;;;;;;6.95;5.30;;;4.40;99.90;;;;;;5034416;28;20664;-41
2021/03/25 03:37:10;;;;;;;7.30;5.72;;;4.40;99.90;;;;;;5034760;28;20343;-41
2021/03/25 03:39:38;;;;;;;9.38;5.68;;;4.40;99.90;;;;;;5034584;28;20563;-41
2021/03/25 03:42:09;;;;;;;9.23;5.75;;;4.40;99.90;;;;;;5034571;28;20466;-41
2021/03/25 03:44:41;;;;;;;9.18;6.00;;;4.40;99.90;;;;;;5034640;28;20212;-41
2021/03/25 03:47:10;;;;;;;7.55;5.03;;;4.40;99.90;;;;;;5034525;28;20252;-42
2021/03/25 03:49:43;;;;;;;6.53;4.90;;;4.40;99.90;;;;;;5034616;28;20578;-42
2021/03/25 03:52:15;;;;;;;9.43;5.05;;;4.40;99.90;;;;;;5034604;28;20213;-42
2021/03/25 03:54:43;;;;;;;5.65;5.05;;;4.40;99.90;;;;;;5034294;28;20316;-42
2021/03/25 03:57:17;;;;;;;7.22;6.00;;;4.40;99.90;;;;;;5034195;28;20299;-41
2021/03/25 03:59:50;;;;;;;7.35;6.47;;;4.40;99.90;;;;;;5034533;28;20742;-41
2021/03/25 04:02:28;;;;;;;11.80;8.25;;;4.40;99.90;;;;;;5034178;28;20304;-42
2021/03/25 04:05:04;;;;;;;13.45;8.65;;;4.40;99.90;;;;;;5034257;28;20208;-40
2021/03/25 04:07:36;;;;;;;15.82;11.32;;;4.30;99.90;;;;;;5034159;28;20296;-41
2021/03/25 04:10:10;;;;;;;8.45;7.35;;;4.30;99.90;;;;;;5034284;28;20300;-41
2021/03/25 04:12:40;;;;;;;8.82;7.28;;;4.30;99.90;;;;;;5034056;28;20238;-41
2021/03/25 04:15:14;;;;;;;7.90;6.07;;;4.30;99.90;;;;;;5033539;28;20267;-41
2021/03/25 04:17:45;;;;;;;8.27;5.70;;;4.30;99.90;;;;;;5033207;28;20736;-41
2021/03/25 04:20:19;;;;;;;8.20;6.18;;;4.20;99.90;;;;;;5033889;28;20209;-41
2021/03/25 04:22:50;;;;;;;7.65;5.93;;;4.20;99.90;;;;;;5034197;28;20282;-42
2021/03/25 04:25:23;;;;;;;8.77;5.50;;;4.20;99.90;;;;;;5033739;28;20729;-41
2021/03/25 04:27:57;;;;;;;5.95;5.13;;;4.20;99.90;;;;;;5033986;28;20220;-42
2021/03/25 04:30:27;;;;;;;7.25;4.82;;;4.20;99.90;;;;;;5033595;28;20303;-43
2021/03/25 04:32:55;;;;;;;7.25;5.68;;;4.20;99.90;;;;;;5033486;28;20314;-41
2021/03/25 04:35:23;;;;;;;8.73;5.70;;;4.20;99.90;;;;;;5033345;28;20229;-40
2021/03/25 04:37:52;;;;;;;5.47;4.60;;;4.20;99.90;;;;;;5033380;28;20303;-41
2021/03/25 04:40:23;;;;;;;6.13;5.03;;;4.20;99.90;;;;;;5033382;28;20224;-42
2021/03/25 04:42:50;;;;;;;6.38;4.70;;;4.10;99.90;;;;;;5033594;28;20370;-42
2021/03/25 04:45:25;;;;;;;5.50;5.00;;;4.10;99.90;;;;;;5033271;28;20299;-41
2021/03/25 04:47:54;;;;;;;5.93;4.80;;;4.00;99.90;;;;;;5033500;28;20216;-42
2021/03/25 04:50:26;;;;;;;5.22;4.28;;;4.00;99.90;;;;;;5033374;28;20308;-41
2021/03/25 04:53:05;;;;;;;7.70;5.13;;;4.00;99.90;;;;;;5033256;28;20292;-41
2021/03/25 04:55:35;;;;;;;6.28;4.55;;;4.00;99.90;;;;;;5033021;28;20311;-41
2021/03/25 04:58:07;;;;;;;13.07;7.32;;;4.00;99.90;;;;;;5033114;28;20759;-41
2021/03/25 05:00:37;;;;;;;7.88;5.50;;;3.90;99.90;;;;;;5033055;28;20303;-41
2021/03/25 05:03:05;;;;;;;9.38;6.28;;;3.90;99.90;;;;;;5032887;28;20299;-41
2021/03/25 05:05:34;;;;;;;11.45;8.00;;;3.90;99.90;;;;;;5032895;28;20205;-43
2021/03/25 05:08:06;;;;;;;26.00;14.50;;;3.90;99.90;;;;;;5032559;28;20311;-41
2021/03/25 05:10:40;;;;;;;15.00;10.23;;;3.90;99.90;;;;;;5033060;28;20223;-41
2021/03/25 05:13:20;;;;;;;16.65;9.63;;;3.90;99.90;;;;;;5032737;28;20212;-41
2021/03/25 05:15:47;;;;;;;16.05;8.68;;;3.90;99.90;;;;;;5032673;28;20323;-41
2021/03/25 05:18:21;;;;;;;18.25;9.57;;;3.90;99.90;;;;;;5032736;28;20235;-41
2021/03/25 05:20:57;;;;;;;12.30;8.27;;;3.90;99.90;;;;;;5032604;28;20216;-42
2021/03/25 05:23:33;;;;;;;9.63;6.43;;;3.90;99.90;;;;;;5032844;28;20205;-41
2021/03/25 05:26:06;;;;;;;9.18;6.05;;;3.90;99.90;;;;;;5032785;28;20291;-41
2021/03/25 05:28:38;;;;;;;9.30;5.80;;;4.00;99.90;;;;;;5032241;28;20647;-42
2021/03/25 05:31:08;;;;;;;8.93;5.35;;;4.00;99.90;;;;;;5032340;28;20205;-42
2021/03/25 05:33:36;;;;;;;8.52;6.60;;;4.10;99.90;;;;;;5032309;28;20254;-42
2021/03/25 05:36:09;;;;;;;12.75;5.15;;;4.20;99.90;;;;;;5032221;28;20247;-42
2021/03/25 05:38:37;;;;;;;7.88;5.63;;;4.20;99.90;;;;;;5032699;28;20644;-42
2021/03/25 05:41:13;;;;;;;12.23;6.25;;;4.30;99.90;;;;;;5032387;28;20258;-42
2021/03/25 05:44:22;;;;;;;10.55;7.00;;;4.40;99.90;;;;;;5032235;28;20284;-43
2021/03/25 05:46:54;;;;;;;11.98;8.50;;;4.40;99.90;;;;;;5032249;28;20580;-42
2021/03/25 05:49:36;;;;;;;9.13;6.32;;;4.50;99.90;;;;;;5032324;28;20344;-42
2021/03/25 05:52:24;;;;;;;19.15;11.35;;;4.60;99.90;;;;;;5031978;28;20522;-42
2021/03/25 05:55:00;;;;;;;8.02;6.10;;;4.70;99.90;;;;;;5031864;28;20257;-42
2021/03/25 05:57:39;;;;;;;6.70;4.90;;;4.80;99.90;;;;;;5031753;28;20295;-41
2021/03/25 06:00:18;;;;;;;5.22;4.75;;;4.90;99.90;;;;;;5031755;28;20679;-42
2021/03/25 06:02:50;;;;;;;12.25;6.68;;;5.00;99.90;;;;;;5032042;28;20303;-42
2021/03/25 06:05:18;;;;;;;21.13;17.25;;;5.10;99.90;;;;;;5031653;28;20248;-42
2021/03/25 06:08:25;;;;;;;7.63;6.38;;;5.20;99.90;;;;;;5031941;28;20299;-43
2021/03/25 06:11:03;;;;;;;9.63;6.43;;;5.30;99.90;;;;;;5012067;28;20270;-41
2021/03/25 06:13:50;;;;;;;39.70;30.42;;;5.50;99.90;;;;;;5031977;28;20684;-42
2021/03/25 06:16:43;;;;;;;20.70;11.25;;;5.60;99.90;;;;;;5031694;28;20237;-42
2021/03/25 06:19:44;;;;;;;12.07;8.43;;;5.70;99.80;;;;;;5031687;28;20248;-42
2021/03/25 06:22:17;;;;;;;12.40;6.68;;;5.90;99.70;;;;;;5031775;28;20240;-41
2021/03/25 06:25:25;;;;;;;16.33;11.10;;;6.00;99.50;;;;;;5031714;28;20251;-43
2021/03/25 06:28:12;;;;;;;9.85;5.45;;;6.10;99.30;;;;;;5031745;28;20672;-42
2021/03/25 06:30:43;;;;;;;21.33;14.25;;;6.20;99.10;;;;;;5031777;28;20287;-42
2021/03/25 06:33:18;;;;;;;6.97;5.20;;;6.30;98.90;;;;;;5031310;28;20240;-42
2021/03/25 06:35:53;;;;;;;5.38;4.47;;;6.40;98.70;;;;;;5031428;28;20224;-46
2021/03/25 06:38:25;;;;;;;6.13;4.85;;;6.40;98.60;;;;;;5032160;28;20262;-43
2021/03/25 06:40:58;;;;;;;10.35;7.72;;;6.60;98.40;;;;;;5037939;28;20374;-48
2021/03/25 06:43:32;;;;;;;6.28;4.28;;;6.70;98.20;;;;;;5038290;28;20306;-44
2021/03/25 06:46:03;;;;;;;14.20;8.80;;;6.70;98.00;;;;;;5037907;28;20715;-42
2021/03/25 06:48:39;;;;;;;9.57;5.78;;;6.80;98.00;;;;;;5038637;28;20239;-42
2021/03/25 06:51:19;;;;;;;7.93;5.88;;;7.00;97.80;;;;;;5038063;28;20260;-44
2021/03/25 06:53:47;;;;;;;9.40;5.20;;;7.20;97.50;;;;;;5037721;28;20282;-42
2021/03/25 06:56:20;;;;;;;6.25;4.80;;;7.40;97.20;;;;;;5037600;28;20315;-42
2021/03/25 06:58:53;;;;;;;6.47;5.20;;;7.50;96.90;;;;;;5037863;28;20654;-45
2021/03/25 07:01:27;;;;;;;17.33;11.85;;;7.60;96.60;;;;;;5037636;28;20607;-42
2021/03/25 07:04:01;;;;;;;13.95;8.52;;;7.80;96.40;;;;;;5037755;28;20721;-42
2021/03/25 07:06:32;;;;;;;20.40;13.90;;;8.00;96.10;;;;;;5037673;28;20339;-43
2021/03/25 07:08:59;;;;;;;12.90;5.68;;;8.10;95.90;;;;;;5037705;28;20247;-47
2021/03/25 07:11:30;;;;;;;10.98;5.53;;;8.20;95.60;;;;;;5037648;28;20299;-43
2021/03/25 07:14:00;;;;;;;10.55;5.13;;;8.30;95.40;;;;;;5037620;28;20243;-46
2021/03/25 07:16:30;;;;;;;5.88;4.22;;;8.40;95.10;;;;;;5037983;28;20395;-44
2021/03/25 07:19:01;;;;;;;7.00;4.45;;;8.50;94.80;;;;;;5037722;28;20235;-43
2021/03/25 07:21:34;;;;;;;10.48;6.07;;;8.50;94.80;;;;;;5037564;28;20663;-43
2021/03/25 07:24:04;;;;;;;6.03;5.10;;;8.60;94.90;;;;;;5037746;28;20208;-43
2021/03/25 07:26:37;;;;;;;8.45;5.43;;;8.70;94.60;;;;;;5037792;28;20300;-45
2021/03/25 07:29:17;;;;;;;9.35;5.32;;;9.00;94.40;;;;;;5037579;28;20208;-42
2021/03/25 07:31:49;;;;;;;9.00;5.45;;;9.20;94.00;;;;;;5037021;28;20296;-44
2021/03/25 07:34:30;;;;;;;11.15;5.13;;;9.30;93.60;;;;;;5037720;28;20303;-44
2021/03/25 07:36:58;;;;;;;8.57;4.80;;;9.50;93.20;;;;;;5037209;28;20232;-44
2021/03/25 07:39:29;;;;;;;12.48;5.35;;;9.60;93.00;;;;;;5037506;28;20208;-43
2021/03/25 07:41:58;;;;;;;12.60;5.70;;;9.80;92.70;;;;;;5037520;28;20372;-43
2021/03/25 07:44:43;;;;;;;7.03;5.55;;;9.90;92.50;;;;;;5037260;28;20291;-45
2021/03/25 07:47:35;;;;;;;8.27;5.85;;;10.10;92.00;;;;;;5037500;28;20285;-46
2021/03/25 07:50:29;;;;;;;7.72;4.97;;;10.20;91.90;;;;;;5037240;28;20219;-45
2021/03/25 07:52:57;;;;;;;7.85;5.03;;;10.20;91.30;;;;;;5034160;28;20247;-47
2021/03/25 07:55:26;;;;;;;11.07;5.03;;;10.30;91.60;;;;;;5034087;28;20692;-47
2021/03/25 07:57:57;;;;;;;12.88;6.32;;;10.30;91.40;;;;;;5034030;28;20303;-45
2021/03/25 08:00:30;;;;;;;8.27;6.40;;;10.40;91.20;;;;;;5034122;28;20299;-43
2021/03/25 08:03:18;;;;;;;9.20;5.60;;;10.40;91.10;;;;;;5034125;28;20296;-49
2021/03/25 08:05:47;;;;;;;7.32;5.93;;;10.50;90.70;;;;;;5034127;28;20204;-45
2021/03/25 08:08:23;;;;;;;7.35;5.75;;;10.60;90.40;;;;;;5034725;28;20659;-43
2021/03/25 08:10:52;;;;;;;10.32;6.93;;;10.60;90.20;;;;;;5034051;28;20607;-46
2021/03/25 08:13:25;;;;;;;7.68;5.28;;;10.70;90.30;;;;;;5033909;28;20236;-43
2021/03/25 08:16:03;;;;;;;7.90;5.55;;;10.80;90.10;;;;;;5034645;28;20478;-43
2021/03/25 08:18:57;;;;;;;9.52;5.63;;;10.90;89.70;;;;;;5034081;28;20209;-45
2021/03/25 08:21:39;;;;;;;9.32;5.78;;;11.10;89.20;;;;;;5033514;28;20606;-48
2021/03/25 08:24:44;;;;;;;9.40;7.00;;;11.20;88.10;;;;;;5033643;28;20309;-43
2021/03/25 08:27:20;;;;;;;7.93;5.72;;;11.30;87.60;;;;;;5013783;28;20292;-45
2021/03/25 08:29:59;;;;;;;9.80;6.22;;;11.30;87.50;;;;;;5033848;28;20246;-44
2021/03/25 08:32:33;;;;;;;9.70;6.75;;;11.40;86.70;;;;;;5033316;28;20244;-46
2021/03/25 08:35:17;;;;;;;10.68;6.75;;;11.50;86.40;;;;;;5033502;28;20255;-44
2021/03/25 08:38:04;;;;;;;10.43;6.28;;;11.50;85.80;;;;;;5033564;28;20303;-45
2021/03/25 08:40:40;;;;;;;9.88;6.57;;;11.50;85.40;;;;;;5033293;28;20216;-43
2021/03/25 08:43:17;;;;;;;7.95;5.60;;;11.60;85.60;;;;;;5033214;28;20255;-46
2021/03/25 08:45:51;;;;;;;10.23;6.20;;;11.70;84.90;;;;;;5033490;28;20226;-44
2021/03/25 08:48:23;;;;;;;11.50;6.90;;;11.70;84.60;;;;;;5033279;28;20243;-45
2021/03/25 08:50:56;;;;;;;9.68;5.47;;;11.80;84.10;;;;;;5033247;28;20231;-44
2021/03/25 08:53:45;;;;;;;9.32;6.57;;;12.00;83.80;;;;;;5033457;28;20311;-44
2021/03/25 08:56:34;;;;;;;8.88;6.22;;;12.10;82.30;;;;;;5033112;28;20316;-45
2021/03/25 08:59:06;;;;;;;13.48;7.00;;;12.20;81.80;;;;;;5033300;28;20208;-47
2021/03/25 09:01:41;;;;;;;9.38;6.38;;;12.30;81.60;;;;;;5032661;28;20288;-51
2021/03/25 09:04:10;;;;;;;11.98;8.55;;;12.40;81.40;;;;;;5033323;28;20579;-45
2021/03/25 09:06:40;;;;;;;29.77;20.65;;;12.40;81.00;;;;;;5033102;28;20207;-44
2021/03/25 09:09:28;;;;;;;8.15;6.10;;;12.50;80.80;;;;;;5032657;28;20618;-45
2021/03/25 09:11:56;;;;;;;12.35;6.82;;;12.50;80.00;;;;;;5032876;28;20208;-46
2021/03/25 09:14:26;;;;;;;11.15;7.65;;;12.60;80.20;;;;;;5032697;28;20247;-48
2021/03/25 09:17:13;;;;;;;12.95;8.13;;;12.70;80.00;;;;;;5032876;28;20235;-45
2021/03/25 09:19:44;;;;;;;13.80;7.53;;;12.70;79.00;;;;;;5032769;28;20299;-44
2021/03/25 09:22:45;;;;;;;10.63;7.25;;;12.80;79.40;;;;;;5032832;28;20240;-45
2021/03/25 09:25:22;;;;;;;11.27;7.53;;;13.00;79.00;;;;;;5032318;28;20251;-48
2021/03/25 09:27:53;;;;;;;12.40;7.75;;;13.10;78.60;;;;;;5032816;28;20323;-47
2021/03/25 09:30:30;;;;;;;9.35;6.90;;;13.30;78.20;;;;;;5018202;28;20268;-47
2021/03/25 09:33:31;;;;;;;9.32;7.35;;;13.40;77.30;;;;;;5023933;28;20339;-45
2021/03/25 09:35:58;;;;;;;13.98;12.15;;;13.40;77.20;;;;;;5032071;28;20673;-45
2021/03/25 09:38:31;;;;;;;18.70;16.38;;;13.40;77.50;;;;;;5032423;28;20211;-51
2021/03/25 09:40:58;;;;;;;10.70;7.65;;;13.60;77.20;;;;;;5032484;28;20247;-52
2021/03/25 09:43:43;;;;;;;11.98;7.75;;;13.70;77.10;;;;;;5032310;28;20299;-49
2021/03/25 09:46:38;;;;;;;10.88;7.03;;;13.90;76.30;;;;;;5032461;28;20266;-52
2021/03/25 09:49:31;;;;;;;9.13;7.07;;;14.00;76.30;;;;;;5032513;28;20267;-50
2021/03/25 09:52:41;;;;;;;10.10;7.50;;;14.10;76.20;;;;;;5032454;28;20248;-45
2021/03/25 09:55:34;;;;;;;13.15;10.60;;;14.20;75.70;;;;;;4997013;28;20737;-47
2021/03/25 09:58:02;;;;;;;12.60;7.57;;;14.30;74.80;;;;;;5032089;28;20598;-50
2021/03/25 10:00:56;;;;;;;13.63;8.80;;;14.40;75.20;;;;;;5032063;28;20240;-47
2021/03/25 10:04:05;;;;;;;9.35;7.45;;;14.50;74.80;;;;;;5032397;28;20300;-46
2021/03/25 10:07:03;;;;;;;11.05;8.52;;;14.70;74.30;;;;;;5032266;28;20215;-49
2021/03/25 10:09:58;;;;;;;9.32;7.35;;;14.80;73.80;;;;;;4998208;28;20251;-47
2021/03/25 10:13:01;;;;;;;13.13;8.05;;;14.90;74.00;;;;;;5031742;28;20266;-49
2021/03/25 10:15:45;;;;;;;12.52;8.13;;;14.90;73.60;;;;;;5031588;28;20675;-45
2021/03/25 10:18:33;;;;;;;11.15;7.32;;;14.90;73.30;;;;;;5031825;28;20311;-45
2021/03/25 10:21:05;;;;;;;9.02;7.28;;;14.90;73.80;;;;;;5031720;28;20274;-45
2021/03/25 10:23:36;;;;;;;11.05;8.07;;;15.00;72.60;;;;;;5031900;28;20213;-47
2021/03/25 10:26:19;;;;;;;7.90;6.78;;;15.00;72.60;;;;;;5031493;28;20296;-45
2021/03/25 10:28:50;;;;;;;6.85;5.60;;;15.00;71.50;;;;;;5031582;28;20204;-45
2021/03/25 10:31:20;;;;;;;7.45;5.90;;;15.00;71.90;;;;;;5031294;28;20212;-44
2021/03/25 10:33:50;;;;;;;7.88;6.22;;;15.00;71.50;;;;;;5031263;28;20247;-45
2021/03/25 10:36:21;;;;;;;14.45;6.90;;;15.00;71.70;;;;;;5031487;28;20224;-45
2021/03/25 10:38:52;;;;;;;7.47;5.80;;;15.10;71.50;;;;;;5031439;28;20219;-45
2021/03/25 10:41:22;;;;;;;6.63;5.82;;;15.20;71.00;;;;;;5031440;28;20296;-46
2021/03/25 10:43:50;;;;;;;11.07;7.50;;;15.20;71.10;;;;;;5031556;28;20236;-47
2021/03/25 10:46:29;;;;;;;9.70;6.60;;;15.30;70.70;;;;;;5031532;28;20247;-45
2021/03/25 10:49:01;;;;;;;9.10;6.30;;;15.40;70.70;;;;;;5031545;28;20643;-47
2021/03/25 10:51:32;;;;;;;9.68;7.32;;;15.40;70.40;;;;;;5031372;28;20219;-50
2021/03/25 10:54:21;;;;;;;9.43;7.55;;;15.50;70.50;;;;;;5031449;28;20311;-46
2021/03/25 10:56:48;;;;;;;11.13;7.60;;;15.60;70.40;;;;;;5031224;28;20264;-44
2021/03/25 10:59:20;;;;;;;7.68;5.75;;;15.70;70.70;;;;;;5031358;28;20292;-43
2021/03/25 11:01:48;;;;;;;10.60;6.38;;;15.90;69.90;;;;;;5031463;28;20284;-48
2021/03/25 11:04:18;;;;;;;7.80;6.57;;;16.00;69.00;;;;;;5031272;28;20205;-46
2021/03/25 11:06:46;;;;;;;8.23;5.70;;;16.10;68.70;;;;;;5031577;28;20204;-45
2021/03/25 11:09:18;;;;;;;8.02;6.40;;;16.10;68.10;;;;;;5031318;28;20618;-46
2021/03/25 11:11:46;;;;;;;7.93;5.43;;;16.20;67.00;;;;;;5031080;28;20247;-45
2021/03/25 11:14:32;;;;;;;6.32;5.50;;;16.20;66.80;;;;;;5031289;28;20236;-46
2021/03/25 11:17:02;;;;;;;6.95;5.90;;;16.20;66.00;;;;;;5031100;28;20228;-44
2021/03/25 11:19:30;;;;;;;7.75;5.75;;;16.20;66.50;;;;;;5031137;28;20208;-46
2021/03/25 11:21:59;;;;;;;6.90;6.07;;;16.30;65.90;;;;;;5031173;28;20295;-46
2021/03/25 11:24:28;;;;;;;7.00;5.95;;;16.40;65.40;;;;;;5031107;28;20659;-46
2021/03/25 11:26:56;;;;;;;11.63;7.95;;;16.50;65.10;;;;;;5034472;28;20200;-45
2021/03/25 11:29:26;;;;;;;9.98;5.88;;;16.70;63.70;;;;;;5034564;28;20675;-44
2021/03/25 11:32:10;;;;;;;6.15;5.50;;;16.80;63.00;;;;;;5034635;28;20213;-44
2021/03/25 11:34:41;;;;;;;6.63;5.82;;;16.90;61.50;;;;;;5034878;28;20205;-45
2021/03/25 11:37:22;;;;;;;7.15;5.28;;;16.90;61.40;;;;;;5034616;28;20294;-53
2021/03/25 11:40:01;;;;;;;12.82;6.15;;;17.00;60.20;;;;;;5034739;28;20212;-47
2021/03/25 11:42:30;;;;;;;6.35;5.07;;;17.00;60.00;;;;;;5034857;28;20291;-53
2021/03/25 11:44:58;;;;;;;6.28;4.63;;;16.90;60.20;;;;;;5034947;28;20209;-49
2021/03/25 11:47:38;;;;;;;13.18;4.88;;;16.90;60.20;;;;;;5034759;28;20303;-47
2021/03/25 11:50:10;;;;;;;7.03;5.20;;;16.90;58.90;;;;;;5034331;28;20247;-46
2021/03/25 11:52:46;;;;;;;4.72;3.95;;;16.90;59.10;;;;;;5034494;28;20342;-47
2021/03/25 11:55:22;;;;;;;6.03;4.60;;;16.90;58.10;;;;;;5034710;28;20208;-48
2021/03/25 11:57:51;;;;;;;5.72;4.72;;;17.00;58.00;;;;;;5034527;28;20311;-52
2021/03/25 12:00:20;;;;;;;5.72;4.30;;;17.00;57.40;;;;;;5034486;28;20254;-46
2021/03/25 12:02:48;;;;;;;7.20;5.20;;;17.00;57.20;;;;;;5034346;28;20295;-48
2021/03/25 12:05:37;;;;;;;5.07;4.22;;;17.10;56.70;;;;;;5035861;28;20268;-47
2021/03/25 12:08:19;;;;;;;6.68;4.50;;;17.10;56.40;;;;;;5034074;28;20244;-47
2021/03/25 12:10:55;;;;;;;8.77;5.57;;;17.00;56.00;;;;;;5033836;28;20299;-50
2021/03/25 12:13:23;;;;;;;5.50;3.70;;;17.10;56.20;;;;;;5034065;28;20564;-47
2021/03/25 12:15:50;;;;;;;4.15;2.92;;;17.10;55.40;;;;;;5034114;28;20293;-46
2021/03/25 12:18:21;;;;;;;5.63;4.15;;;17.20;54.20;;;;;;5034130;28;20227;-52
2021/03/25 12:20:49;;;;;;;5.97;3.53;;;17.20;53.30;;;;;;5034181;28;20216;-47
2021/03/25 12:23:20;;;;;;;5.82;4.35;;;17.30;52.90;;;;;;5033716;28;20209;-45
2021/03/25 12:25:50;;;;;;;4.75;3.63;;;17.40;53.00;;;;;;5033911;28;20235;-44
2021/03/25 12:28:18;;;;;;;7.10;4.40;;;17.50;52.70;;;;;;5034012;28;20208;-45
2021/03/25 12:30:46;;;;;;;4.85;3.90;;;17.50;52.50;;;;;;5033802;28;20240;-43
2021/03/25 12:33:21;;;;;;;8.32;4.18;;;17.50;52.00;;;;;;5033536;28;20375;-47
2021/03/25 12:35:49;;;;;;;7.07;3.67;;;17.40;52.00;;;;;;5033505;28;20208;-46
2021/03/25 12:38:18;;;;;;;4.93;3.40;;;17.40;52.10;;;;;;5032537;28;20209;-46
2021/03/25 12:40:45;;;;;;;6.03;3.60;;;17.50;51.70;;;;;;5033499;28;20296;-45
2021/03/25 12:43:15;;;;;;;3.42;3.03;;;17.60;51.60;;;;;;5033595;28;20295;-44
2021/03/25 12:45:47;;;;;;;4.75;2.88;;;17.60;50.10;;;;;;5033475;28;20698;-43
2021/03/25 12:48:14;;;;;;;6.18;3.45;;;17.50;49.90;;;;;;5033656;28;20295;-43
2021/03/25 12:50:42;;;;;;;6.70;3.95;;;17.50;49.40;;;;;;5033490;28;20213;-49
2021/03/25 12:53:09;;;;;;;5.68;3.90;;;17.40;49.50;;;;;;5033661;28;20299;-44
2021/03/25 12:55:37;;;;;;;4.50;3.42;;;17.40;49.60;;;;;;5033638;28;20208;-46
2021/03/25 12:58:05;;;;;;;4.35;3.30;;;17.50;49.70;;;;;;5033257;28;20236;-50
2021/03/25 13:00:34;;;;;;;5.20;3.97;;;17.50;49.40;;;;;;5033678;28;20295;-49
2021/03/25 13:03:20;;;;;;;5.80;3.80;;;17.60;49.40;;;;;;5033959;28;20594;-46
2021/03/25 13:05:47;;;;;;;6.57;3.88;;;17.60;49.40;;;;;;5032809;28;20209;-44
2021/03/25 13:08:14;;;;;;;5.03;4.10;;;17.60;49.40;;;;;;5032670;28;20295;-46
2021/03/25 13:10:43;;;;;;;5.70;4.00;;;17.60;49.50;;;;;;5032869;28;20212;-45
2021/03/25 13:13:10;;;;;;;4.70;4.22;;;17.70;49.60;;;;;;5032804;28;20303;-46
2021/03/25 13:15:38;;;;;;;7.20;5.47;;;17.70;49.60;;;;;;5032613;28;20341;-49
2021/03/25 13:21:08;;;;;;;6.10;4.95;;;17.90;49.70;;;;;;5031988;28;20613;-45
2021/03/25 13:23:35;;;;;;;6.65;4.60;;;17.80;49.80;;;;;;5032650;28;20248;-44
2021/03/25 13:26:06;;;;;;;6.70;5.22;;;17.70;50.10;;;;;;5032499;28;20213;-43
2021/03/25 13:28:33;;;;;;;5.05;4.43;;;17.60;50.20;;;;;;5032508;28;20276;-44
2021/03/25 13:31:00;;;;;;;6.82;4.60;;;17.60;50.40;;;;;;5032136;28;20236;-44